createdAt,value
2022-09-28T00:01:20.692Z,96450.22
2022-09-28T00:03:48.981Z,96455.38
2022-09-28T00:06:20.024Z,96453.00
2022-09-28T00:08:47.106Z,96449.56
2022-09-28T00:11:15.654Z,96447.72
2022-09-28T00:13:43.348Z,96450.22
2022-09-28T00:16:16.918Z,96439.88
2022-09-28T00:18:44.834Z,96444.38
2022-09-28T00:21:18.012Z,96441.56
2022-09-28T00:24:04.069Z,96441.56
2022-09-28T00:26:32.896Z,96435.09
2022-09-28T00:29:01.510Z,96437.97
2022-09-28T00:31:31.721Z,96441.41
2022-09-28T00:34:00.472Z,96435.41
2022-09-28T00:36:30.169Z,96440.66
2022-09-28T00:38:58.302Z,96438.25
2022-09-28T00:41:27.397Z,96446.88
2022-09-28T00:44:15.200Z,96438.28
2022-09-28T00:46:42.106Z,96435.41
2022-09-28T00:49:16.089Z,96439.44
2022-09-28T00:51:45.512Z,96431.53
2022-09-28T00:54:14.702Z,96434.34
2022-09-28T00:56:44.512Z,96425.72
2022-09-28T00:59:11.370Z,96422.81
2022-09-28T01:01:38.996Z,96427.41
2022-09-28T01:04:06.893Z,96430.88
2022-09-28T01:06:38.142Z,96416.81
2022-09-28T01:09:10.055Z,96419.16
2022-09-28T01:11:38.489Z,96417.97
2022-09-28T01:14:13.003Z,96417.13
2022-09-28T01:17:08.452Z,96421.75
2022-09-28T01:20:06.606Z,96417.75
2022-09-28T01:22:47.636Z,96426.38
2022-09-28T01:25:29.887Z,96421.44
2022-09-28T01:28:21.037Z,96424.38
2022-09-28T01:31:15.289Z,96419.31
2022-09-28T01:33:47.497Z,96418.69
2022-09-28T01:36:25.215Z,96406.72
2022-09-28T01:39:08.094Z,96410.75
2022-09-28T01:41:38.470Z,96413.22
2022-09-28T01:44:09.797Z,96399.41
2022-09-28T01:46:42.101Z,96406.88
2022-09-28T01:49:14.930Z,96410.69
2022-09-28T01:51:59.176Z,96407.63
2022-09-28T01:54:38.876Z,96409.59
2022-09-28T01:57:11.999Z,96404.31
2022-09-28T01:59:46.554Z,96405.28
2022-09-28T02:02:18.908Z,96402.97
2022-09-28T02:04:51.705Z,96390.59
2022-09-28T02:07:20.744Z,96405.25
2022-09-28T02:10:01.150Z,96399.81
2022-09-28T02:12:36.083Z,96395.59
2022-09-28T02:15:20.861Z,96398.53
2022-09-28T02:17:48.119Z,96379.38
2022-09-28T02:20:17.356Z,96401.00
2022-09-28T02:22:49.396Z,96383.91
2022-09-28T02:25:40.397Z,96386.81
2022-09-28T02:28:11.173Z,96387.91
2022-09-28T02:30:40.773Z,96387.66
2022-09-28T02:33:22.663Z,96384.09
2022-09-28T02:35:50.129Z,96385.50
2022-09-28T02:38:20.317Z,96382.16
2022-09-28T02:41:02.241Z,96381.50
2022-09-28T02:43:50.122Z,96391.94
2022-09-28T02:46:30.487Z,96383.34
2022-09-28T02:49:21.861Z,96373.72
2022-09-28T02:52:16.754Z,96354.19
2022-09-28T02:54:54.275Z,96370.34
2022-09-28T02:57:38.095Z,96354.94
2022-09-28T03:00:33.774Z,96365.03
2022-09-28T03:03:32.611Z,96364.91
2022-09-28T03:06:05.285Z,96370.16
2022-09-28T03:08:54.565Z,96367.16
2022-09-28T03:11:53.548Z,96372.44
2022-09-28T03:14:20.780Z,96352.91
2022-09-28T03:16:53.996Z,96346.44
2022-09-28T03:19:27.934Z,96351.34
2022-09-28T03:21:55.826Z,96349.75
2022-09-28T03:24:22.580Z,96355.63
2022-09-28T03:26:49.855Z,96354.03
2022-09-28T03:29:16.670Z,96349.31
2022-09-28T03:31:47.931Z,96352.00
2022-09-28T03:34:14.998Z,96347.94
2022-09-28T03:36:43.052Z,96349.53
2022-09-28T03:39:10.077Z,96347.78
2022-09-28T03:41:38.284Z,96346.28
2022-09-28T03:44:05.258Z,96353.75
2022-09-28T03:46:33.160Z,96345.28
2022-09-28T03:49:05.349Z,96339.94
2022-09-28T03:51:32.088Z,96320.09
2022-09-28T03:53:58.588Z,96331.81
2022-09-28T03:56:26.429Z,96336.38
2022-09-28T03:58:53.057Z,96325.16
2022-09-28T04:01:20.319Z,96321.97
2022-09-28T04:03:48.077Z,96314.84
2022-09-28T04:06:15.663Z,96308.13
2022-09-28T04:08:43.408Z,96285.09
2022-09-28T04:11:10.651Z,96286.69
2022-09-28T04:13:37.376Z,96282.94
2022-09-28T04:16:06.458Z,96279.63
2022-09-28T04:18:35.279Z,96280.81
2022-09-28T04:21:11.161Z,96282.41
2022-09-28T04:23:47.476Z,96280.53
2022-09-28T04:26:22.655Z,96280.88
2022-09-28T04:29:09.266Z,96263.03
2022-09-28T04:31:45.949Z,96271.75
2022-09-28T04:34:17.377Z,96265.16
2022-09-28T04:36:45.469Z,96278.00
2022-09-28T04:39:17.080Z,96277.94
2022-09-28T04:41:53.684Z,96274.56
2022-09-28T04:44:20.376Z,96275.44
2022-09-28T04:46:49.152Z,96273.56
2022-09-28T04:49:27.875Z,96268.81
2022-09-28T04:52:18.693Z,96269.22
2022-09-28T04:54:48.509Z,96267.63
2022-09-28T04:57:16.285Z,96265.84
2022-09-28T04:59:42.808Z,96268.25
2022-09-28T05:02:09.637Z,96258.69
2022-09-28T05:04:56.555Z,96256.09
2022-09-28T05:07:42.879Z,96254.34
2022-09-28T05:10:11.347Z,96248.94
2022-09-28T05:12:39.711Z,96245.78
2022-09-28T05:15:06.718Z,96249.16
2022-09-28T05:17:33.780Z,96240.66
2022-09-28T05:20:10.142Z,96243.91
2022-09-28T05:22:37.011Z,96237.63
2022-09-28T05:25:05.447Z,96234.25
2022-09-28T05:27:43.400Z,96235.06
2022-09-28T05:30:24.567Z,96235.75
2022-09-28T05:33:05.710Z,96233.09
2022-09-28T05:35:44.721Z,96245.97
2022-09-28T05:38:11.546Z,96236.03
2022-09-28T05:40:38.653Z,96233.69
2022-09-28T05:43:05.590Z,96229.38
2022-09-28T05:45:33.200Z,96246.34
2022-09-28T05:48:00.503Z,96233.00
2022-09-28T05:50:28.211Z,96228.69
2022-09-28T05:53:02.811Z,96222.16
2022-09-28T05:55:29.966Z,96229.97
2022-09-28T05:58:01.373Z,96225.50
2022-09-28T06:00:34.471Z,96221.56
2022-09-28T06:03:09.198Z,96219.34
2022-09-28T06:05:39.481Z,96208.34
2022-09-28T06:08:08.428Z,96217.75
2022-09-28T06:10:36.006Z,96201.06
2022-09-28T06:13:03.307Z,96180.00
2022-09-28T06:15:32.236Z,96203.13
2022-09-28T06:18:06.431Z,96204.84
2022-09-28T06:20:53.439Z,96186.06
2022-09-28T06:23:30.546Z,96188.66
2022-09-28T06:25:59.883Z,96180.31
2022-09-28T06:28:27.185Z,96183.22
2022-09-28T06:30:54.603Z,96182.16
2022-09-28T06:33:22.047Z,96179.09
2022-09-28T06:35:48.708Z,96176.22
2022-09-28T06:38:16.231Z,96182.66
2022-09-28T06:40:42.994Z,96171.44
2022-09-28T06:43:11.803Z,96171.84
2022-09-28T06:46:10.542Z,96168.13
2022-09-28T06:48:55.971Z,96156.63
2022-09-28T06:51:52.018Z,96157.84
2022-09-28T09:08:13.557Z,96109.75
2022-09-28T09:10:52.468Z,96111.53
2022-09-28T09:13:40.493Z,96109.16
2022-09-28T09:16:26.379Z,96113.75
2022-09-28T09:19:14.683Z,96119.69
2022-09-28T09:22:39.124Z,96117.75
2022-09-28T09:25:18.278Z,96115.41
2022-09-28T09:27:50.645Z,96106.44
2022-09-28T09:30:28.698Z,96118.16
2022-09-28T09:33:42.604Z,96116.53
2022-09-28T09:37:03.305Z,96124.59
2022-09-28T09:40:14.853Z,96128.63
2022-09-28T09:43:27.928Z,96128.69
2022-09-28T09:46:18.053Z,96142.38
2022-09-28T09:49:12.247Z,96136.84
2022-09-28T09:52:00.944Z,96135.19
2022-09-28T09:54:42.179Z,96131.72
2022-09-28T09:57:15.893Z,96138.06
2022-09-28T10:00:03.235Z,96132.47
2022-09-28T10:02:49.801Z,96130.03
2022-09-28T10:05:35.871Z,96127.34
2022-09-28T10:08:12.081Z,96127.94
2022-09-28T10:10:49.579Z,96130.69
2022-09-28T10:13:19.788Z,96125.53
2022-09-28T10:15:47.874Z,96133.59
2022-09-28T10:18:33.466Z,96126.16
2022-09-28T10:21:15.598Z,96129.13
2022-09-28T10:23:57.143Z,96119.50
2022-09-28T10:26:40.821Z,96118.25
2022-09-28T10:30:00.819Z,96123.41
2022-09-28T10:32:39.165Z,96120.84
2022-09-28T10:35:18.712Z,96118.56
2022-09-28T10:38:03.322Z,96103.09
2022-09-28T10:40:54.515Z,96102.75
2022-09-28T10:44:08.668Z,96107.41
2022-09-28T10:47:02.596Z,96098.19
2022-09-28T10:49:47.239Z,96098.91
2022-09-28T10:52:28.211Z,96093.94
2022-09-28T10:54:55.922Z,96091.81
2022-09-28T10:57:35.909Z,96102.88
2022-09-28T11:00:08.162Z,96099.31
2022-09-28T11:02:41.735Z,96103.47
2022-09-28T11:05:28.023Z,96098.13
2022-09-28T11:08:00.748Z,96097.84
2022-09-28T11:10:34.755Z,96098.81
2022-09-28T11:13:10.386Z,96115.84
2022-09-28T11:15:46.214Z,96128.63
2022-09-28T11:18:48.799Z,96119.47
2022-09-28T11:22:18.393Z,96126.88
2022-09-28T11:25:49.324Z,96123.72
2022-09-28T11:30:54.860Z,96093.50
2022-09-28T11:33:38.855Z,96124.59
2022-09-28T11:36:46.798Z,96112.69
2022-09-28T11:39:33.567Z,96107.97
2022-09-28T11:43:01.706Z,96101.34
2022-09-28T11:45:54.759Z,96111.81
2022-09-28T11:48:34.692Z,96110.56
2022-09-28T11:51:12.883Z,96113.03
2022-09-28T11:53:45.606Z,96124.00
2022-09-28T11:56:32.218Z,96117.38
2022-09-28T11:59:06.151Z,96116.00
2022-09-28T12:01:51.633Z,96105.59
2022-09-28T12:04:38.527Z,96106.41
2022-09-28T12:07:24.659Z,96113.88
2022-09-28T12:09:57.848Z,96115.28
2022-09-28T12:12:54.899Z,96113.53
2022-09-28T12:15:25.725Z,96113.78
2022-09-28T12:18:14.576Z,96113.63
2022-09-28T12:21:05.340Z,96100.03
2022-09-28T12:23:35.964Z,96105.78
2022-09-28T12:26:26.272Z,96103.47
2022-09-28T12:29:01.278Z,96097.97
2022-09-28T12:31:50.726Z,96101.41
2022-09-28T12:34:17.840Z,96094.34
2022-09-28T12:37:02.912Z,96101.50
2022-09-28T12:39:56.981Z,96111.06
2022-09-28T12:42:29.199Z,96104.88
2022-09-28T12:45:10.045Z,96109.44
2022-09-28T12:48:07.968Z,96109.34
2022-09-28T12:50:58.131Z,96108.47
2022-09-28T12:53:29.784Z,96110.19
2022-09-28T12:56:06.319Z,96108.16
2022-09-28T12:58:48.444Z,96105.41
2022-09-28T13:01:38.903Z,96104.00
2022-09-28T13:04:13.504Z,96090.63
2022-09-28T13:06:52.222Z,96105.59
2022-09-28T13:09:25.657Z,96105.25
2022-09-28T13:11:54.682Z,96110.13
2022-09-28T13:14:43.878Z,96113.41
2022-09-28T13:17:22.735Z,96108.00
2022-09-28T13:19:55.330Z,96112.50
2022-09-28T13:22:44.079Z,96113.16
2022-09-28T13:25:20.021Z,96115.63
2022-09-28T13:28:06.370Z,96122.31
2022-09-28T13:30:36.612Z,96124.38
2022-09-28T13:33:06.053Z,96131.03
2022-09-28T13:35:46.897Z,96125.06
2022-09-28T13:38:17.577Z,96135.78
2022-09-28T13:41:06.008Z,96133.59
2022-09-28T13:44:17.016Z,96141.94
2022-09-28T13:47:26.488Z,96126.53
2022-09-28T13:50:16.760Z,96145.09
2022-09-28T13:52:54.543Z,96134.97
2022-09-28T13:55:24.778Z,96143.16
2022-09-28T13:58:01.060Z,96140.88
2022-09-28T14:00:58.397Z,96146.25
2022-09-28T14:03:27.524Z,96142.66
2022-09-28T14:06:31.534Z,96149.81
2022-09-28T14:09:14.062Z,96155.31
2022-09-28T14:11:54.377Z,96140.81
2022-09-28T14:14:44.546Z,96161.66
2022-09-28T14:17:30.378Z,96164.00
2022-09-28T14:20:12.931Z,96158.78
2022-09-28T14:23:05.671Z,96167.78
2022-09-28T14:25:45.651Z,96179.25
2022-09-28T14:28:24.813Z,96179.19
2022-09-28T14:30:56.813Z,96171.28
2022-09-28T14:33:23.944Z,96182.94
2022-09-28T14:36:45.647Z,96180.72
2022-09-28T14:39:46.552Z,96183.00
2022-09-28T14:42:21.520Z,96183.84
2022-09-28T14:45:06.368Z,96198.22
2022-09-28T14:47:40.664Z,96195.84
2022-09-28T14:50:30.108Z,96194.81
2022-09-28T14:53:12.430Z,96203.47
2022-09-28T14:55:48.191Z,96201.75
2022-09-28T14:58:19.791Z,96209.88
2022-09-28T15:00:49.115Z,96204.91
2022-09-28T15:03:17.268Z,96211.25
2022-09-28T15:05:49.631Z,96205.38
2022-09-28T15:08:21.037Z,96211.44
2022-09-28T15:10:49.997Z,96207.19
2022-09-28T15:13:27.453Z,96217.47
2022-09-28T15:16:16.678Z,96210.72
2022-09-28T15:19:13.609Z,96215.22
2022-09-28T15:21:50.372Z,96211.13
2022-09-28T15:24:32.475Z,96212.72
2022-09-28T15:27:02.622Z,96215.25
2022-09-28T15:29:33.355Z,96213.03
2022-09-28T15:32:00.321Z,96224.25
2022-09-28T15:34:52.129Z,96226.31
2022-09-28T15:37:24.098Z,96226.53
2022-09-28T15:39:52.930Z,96233.47
2022-09-28T15:42:20.540Z,96243.56
2022-09-28T15:45:26.958Z,96242.38
2022-09-28T15:48:19.139Z,96248.78
2022-09-28T15:51:13.086Z,96247.25
2022-09-28T15:54:09.364Z,96246.69
2022-09-28T15:56:59.945Z,96258.41
2022-09-28T15:59:40.224Z,96258.06
2022-09-28T16:02:16.802Z,96255.28
2022-09-28T16:04:50.673Z,96271.84
2022-09-28T16:07:25.307Z,96270.44
2022-09-28T16:10:01.899Z,96267.69
2022-09-28T16:12:37.724Z,96283.56
2022-09-28T16:15:21.799Z,96289.06
2022-09-28T16:17:54.028Z,96279.78
2022-09-28T16:20:23.184Z,96304.94
2022-09-28T16:22:50.749Z,96295.88
2022-09-28T16:25:24.732Z,96300.38
2022-09-28T16:27:54.228Z,96299.69
2022-09-28T16:30:24.954Z,96311.88
2022-09-28T16:32:56.476Z,96317.69
2022-09-28T16:35:25.788Z,96316.41
2022-09-28T16:38:14.438Z,96313.94
2022-09-28T16:40:43.250Z,96317.78
2022-09-28T16:43:19.461Z,96319.72
2022-09-28T16:45:46.523Z,96314.16
2022-09-28T16:48:20.406Z,96313.16
2022-09-28T16:50:47.529Z,96325.13
2022-09-28T16:53:35.822Z,96331.75
2022-09-28T16:56:04.483Z,96331.66
2022-09-28T16:58:32.066Z,96336.03
2022-09-28T17:01:00.153Z,96333.09
2022-09-28T17:03:28.166Z,96339.41
2022-09-28T17:05:55.760Z,96335.78
2022-09-28T17:08:24.821Z,96342.59
2022-09-28T17:11:16.927Z,96346.28
2022-09-28T17:13:46.110Z,96345.94
2022-09-28T17:16:17.747Z,96342.97
2022-09-28T17:18:46.067Z,96336.50
2022-09-28T17:21:18.519Z,96338.31
2022-09-28T17:23:46.926Z,96346.97
2022-09-28T17:26:31.026Z,96344.13
2022-09-28T17:28:59.501Z,96348.59
2022-09-28T17:31:26.834Z,96345.63
2022-09-28T17:33:54.747Z,96348.94
2022-09-28T17:36:22.217Z,96354.06
2022-09-28T17:38:51.192Z,96351.75
2022-09-28T17:41:20.797Z,96360.34
2022-09-28T17:43:49.063Z,96369.47
2022-09-28T17:46:29.083Z,96359.81
2022-09-28T17:48:59.655Z,96370.38
2022-09-28T17:51:35.174Z,96372.47
2022-09-28T17:54:02.290Z,96362.59
2022-09-28T17:56:32.506Z,96370.69
2022-09-28T17:59:02.974Z,96366.56
2022-09-28T18:01:34.328Z,96365.66
2022-09-28T18:04:03.187Z,96356.56
2022-09-28T18:06:30.119Z,96370.59
2022-09-28T18:08:56.738Z,96375.66
2022-09-28T18:11:23.318Z,96382.13
2022-09-28T18:13:49.895Z,96377.16
2022-09-28T18:16:19.736Z,96380.44
2022-09-28T18:18:47.426Z,96375.41
2022-09-28T18:21:14.223Z,96379.03
2022-09-28T18:23:41.166Z,96372.13
2022-09-28T18:26:13.022Z,96384.94
2022-09-28T18:28:40.267Z,96383.38
2022-09-28T18:31:11.638Z,96388.81
2022-09-28T18:33:38.836Z,96377.50
2022-09-28T18:36:07.043Z,96400.22
2022-09-28T18:38:37.673Z,96392.56
2022-09-28T18:41:22.955Z,96400.72
2022-09-28T18:43:50.419Z,96413.56
2022-09-28T18:46:18.435Z,96410.97
2022-09-28T18:48:46.396Z,96419.25
2022-09-28T18:51:13.379Z,96421.72
2022-09-28T18:53:40.492Z,96415.31
2022-09-28T18:56:12.472Z,96409.25
2022-09-28T18:58:40.516Z,96422.00
2022-09-28T19:01:28.946Z,96424.56
2022-09-28T19:03:56.744Z,96423.47
2022-09-28T19:06:23.478Z,96429.88
2022-09-28T19:08:55.692Z,96432.66
2022-09-28T19:11:23.848Z,96431.72
2022-09-28T19:13:53.370Z,96435.69
2022-09-28T19:16:25.734Z,96434.00
2022-09-28T19:18:53.906Z,96423.06
2022-09-28T19:21:21.094Z,96430.78
2022-09-28T19:23:49.954Z,96425.94
2022-09-28T19:26:20.401Z,96435.78
2022-09-28T19:28:48.663Z,96438.50
2022-09-28T19:31:16.204Z,96444.09
2022-09-28T19:33:45.879Z,96448.16
2022-09-28T19:36:19.039Z,96444.56
2022-09-28T19:38:46.230Z,96450.38
2022-09-28T19:41:39.597Z,96451.75
2022-09-28T19:44:29.983Z,96460.72
2022-09-28T19:47:04.251Z,96462.53
2022-09-28T19:49:33.299Z,96456.59
2022-09-28T19:52:16.177Z,96455.22
2022-09-28T19:54:45.520Z,96459.75
2022-09-28T19:57:14.493Z,96456.25
2022-09-28T19:59:41.623Z,96446.28
2022-09-28T20:02:10.465Z,96462.53
2022-09-28T20:04:37.485Z,96461.47
2022-09-28T20:07:05.237Z,96458.25
2022-09-28T20:09:33.259Z,96467.72
2022-09-28T20:12:05.239Z,96455.28
2022-09-28T20:14:36.537Z,96468.09
2022-09-28T20:17:06.162Z,96484.09
2022-09-28T20:19:33.669Z,96487.81
2022-09-28T20:22:02.856Z,96485.25
2022-09-28T20:24:31.559Z,96489.94
2022-09-28T20:26:58.733Z,96492.44
2022-09-28T20:29:25.579Z,96504.22
2022-09-28T20:31:52.315Z,96507.56
2022-09-28T20:34:18.944Z,96514.69
2022-09-28T20:36:45.745Z,96510.00
2022-09-28T20:39:13.018Z,96517.13
2022-09-28T20:41:40.298Z,96520.75
2022-09-28T20:44:07.273Z,96514.66
2022-09-28T20:46:35.526Z,96517.81
2022-09-28T20:49:03.070Z,96512.94
2022-09-28T20:51:30.085Z,96518.13
2022-09-28T20:53:59.239Z,96522.78
2022-09-28T20:56:26.898Z,96515.47
2022-09-28T20:58:54.380Z,96522.16
2022-09-28T21:01:30.282Z,96523.84
2022-09-28T21:03:59.553Z,96530.09
2022-09-28T21:06:29.553Z,96533.94
2022-09-28T21:08:56.774Z,96524.16
2022-09-28T21:11:25.334Z,96525.31
2022-09-28T21:13:53.751Z,96532.03
2022-09-28T21:16:20.707Z,96537.16
2022-09-28T21:18:47.904Z,96540.09
2022-09-28T21:21:17.106Z,96536.50
2022-09-28T21:23:46.675Z,96537.84
2022-09-28T21:26:27.565Z,96541.31
2022-09-28T21:29:01.270Z,96546.78
2022-09-28T21:31:31.955Z,96546.72
2022-09-28T21:33:59.976Z,96548.84
2022-09-28T21:36:26.795Z,96550.44
2022-09-28T21:38:56.197Z,96559.69
2022-09-28T21:41:26.138Z,96562.47
2022-09-28T21:43:53.089Z,96556.44
2022-09-28T21:46:20.010Z,96547.06
2022-09-28T21:48:50.704Z,96563.56
2022-09-28T21:51:17.657Z,96549.16
2022-09-28T21:53:44.398Z,96556.78
2022-09-28T21:56:11.913Z,96565.78
2022-09-28T21:58:40.160Z,96562.59
2022-09-28T22:01:13.193Z,96570.06
2022-09-28T22:03:41.250Z,96566.59
2022-09-28T22:06:08.562Z,96569.91
2022-09-28T22:08:36.934Z,96572.28
2022-09-28T22:11:05.711Z,96572.56
2022-09-28T22:13:43.199Z,96568.44
2022-09-28T22:16:11.477Z,96571.53
2022-09-28T22:18:38.918Z,96575.69
2022-09-28T22:21:08.906Z,96578.00
2022-09-28T22:23:36.631Z,96571.06
2022-09-28T22:26:07.072Z,96587.84
2022-09-28T22:28:34.817Z,96576.47
2022-09-28T22:31:01.736Z,96581.63
2022-09-28T22:33:28.634Z,96583.91
2022-09-28T22:35:55.520Z,96583.25
2022-09-28T22:38:24.659Z,96587.84
2022-09-28T22:40:54.645Z,96578.81
2022-09-28T22:43:26.204Z,96579.34
2022-09-28T22:46:06.697Z,96577.22
2022-09-28T22:48:34.928Z,96570.81
2022-09-28T22:51:03.058Z,96567.34
2022-09-28T22:53:30.424Z,96577.44
2022-09-28T22:55:59.030Z,96571.50
2022-09-28T22:58:25.703Z,96572.69
2022-09-28T23:00:52.572Z,96578.19
2022-09-28T23:03:19.143Z,96591.88
2022-09-28T23:05:54.145Z,96580.44
2022-09-28T23:08:21.326Z,96583.56
2022-09-28T23:10:48.059Z,96584.03
2022-09-28T23:13:14.750Z,96583.50
2022-09-28T23:15:41.543Z,96587.03
2022-09-28T23:18:12.443Z,96588.16
2022-09-28T23:20:39.739Z,96587.41
2022-09-28T23:23:06.722Z,96579.66
2022-09-28T23:25:33.645Z,96574.06
2022-09-28T23:28:01.398Z,96584.34
2022-09-28T23:30:28.123Z,96580.56
2022-09-28T23:32:54.953Z,96585.06
2022-09-28T23:35:21.848Z,96588.09
2022-09-28T23:37:51.981Z,96588.31
2022-09-28T23:40:18.965Z,96592.00
2022-09-28T23:42:45.607Z,96578.44
2022-09-28T23:45:12.225Z,96591.72
2022-09-28T23:47:40.512Z,96590.13
2022-09-28T23:50:07.799Z,96591.25
2022-09-28T23:52:35.063Z,96588.34
2022-09-28T23:55:01.853Z,96588.69
2022-09-28T23:57:29.069Z,96589.22
2022-09-28T23:59:55.915Z,96577.44
